Time;durP1;ratioP1;P1;durP2;ratioP2;P2;SDS_P1;SDS_P2;PMS_P1;PMS_P2;Temp;Humidity;BMP_temperature;BMP_pressure;BME280_temperature;BME280_humidity;BME280_pressure;Samples;Min_cycle;Max_cycle;Signal;HPM_P1;HPM_P2
2022/01/11 00:00:16;;;;;;;26.80;12.13;;;8.80;99.90;;;;;;5046748;28;20083;-69
2022/01/11 00:02:44;;;;;;;30.02;12.57;;;8.90;99.90;;;;;;5047866;28;20041;-69
2022/01/11 00:05:24;;;;;;;30.80;13.10;;;8.90;99.90;;;;;;5045473;28;20113;-69
2022/01/11 00:07:52;;;;;;;25.75;13.43;;;8.90;99.90;;;;;;5050716;28;20041;-68
2022/01/11 00:10:29;;;;;;;33.03;13.15;;;8.90;99.90;;;;;;5047726;28;20056;-68
2022/01/11 00:12:57;;;;;;;31.55;11.23;;;8.90;99.90;;;;;;5049659;28;20114;-68
2022/01/11 00:15:23;;;;;;;25.88;13.25;;;8.90;99.90;;;;;;5054614;28;20056;-69
2022/01/11 00:17:50;;;;;;;29.70;12.57;;;8.80;99.90;;;;;;5052138;28;20045;-70
2022/01/11 00:20:20;;;;;;;29.90;12.90;;;8.90;99.90;;;;;;5028711;28;20069;-68
2022/01/11 00:24:28;;;;;;;32.22;13.65;;;8.80;99.90;;;;;;5042505;28;20132;-68
2022/01/11 00:25:45;;;;;;;35.20;13.20;;;8.80;99.90;;;;;;5027362;28;20046;-69
2022/01/11 00:28:14;;;;;;;36.45;13.82;;;8.90;99.90;;;;;;5044983;28;20057;-69
2022/01/11 00:30:47;;;;;;;37.90;13.75;;;8.90;99.90;;;;;;5046598;28;20053;-69
2022/01/11 00:33:19;;;;;;;29.23;15.43;;;8.90;99.90;;;;;;5047298;28;20099;-68
2022/01/11 00:35:56;;;;;;;33.33;15.27;;;8.80;99.90;;;;;;5046672;28;20566;-68
2022/01/11 00:38:24;;;;;;;36.97;13.55;;;8.90;99.90;;;;;;5040556;28;20048;-69
2022/01/11 00:40:54;;;;;;;30.10;14.18;;;8.90;99.90;;;;;;5028622;28;20037;-70
2022/01/11 00:43:22;;;;;;;32.80;14.25;;;8.90;99.90;;;;;;5045950;28;20084;-70
2022/01/11 00:45:51;;;;;;;27.30;13.18;;;8.90;99.90;;;;;;5048012;28;20083;-70
2022/01/11 00:48:17;;;;;;;31.40;14.00;;;8.90;99.90;;;;;;5050014;28;20044;-69
2022/01/11 00:50:44;;;;;;;31.63;15.18;;;8.80;99.90;;;;;;5051566;28;20510;-69
2022/01/11 00:53:11;;;;;;;37.90;14.63;;;8.90;99.90;;;;;;5050811;28;20087;-69
2022/01/11 00:55:38;;;;;;;28.70;13.85;;;8.90;99.90;;;;;;5050793;28;20160;-69
2022/01/11 00:58:05;;;;;;;32.45;15.07;;;8.90;99.90;;;;;;5050882;28;20049;-70
2022/01/11 01:00:34;;;;;;;28.45;14.52;;;8.90;99.90;;;;;;5050590;28;20079;-70
2022/01/11 01:03:01;;;;;;;41.60;14.02;;;8.90;99.90;;;;;;5050894;28;20132;-68
2022/01/11 01:05:28;;;;;;;34.03;12.25;;;8.90;99.90;;;;;;5040660;28;20045;-71
2022/01/11 01:07:55;;;;;;;40.35;14.30;;;8.90;99.90;;;;;;5052600;28;20045;-69
2022/01/11 01:10:26;;;;;;;37.53;12.80;;;8.90;99.90;;;;;;5052808;28;20381;-69
2022/01/11 01:12:54;;;;;;;38.92;16.52;;;8.90;99.90;;;;;;5051423;28;20095;-70
2022/01/11 01:15:21;;;;;;;25.58;12.63;;;8.90;99.90;;;;;;5048475;28;20072;-69
2022/01/11 01:17:48;;;;;;;31.88;13.98;;;8.90;99.90;;;;;;5051831;28;20549;-68
2022/01/11 01:20:15;;;;;;;31.60;12.15;;;8.90;99.90;;;;;;5051013;28;20080;-69
2022/01/11 01:22:41;;;;;;;30.25;13.10;;;8.90;99.90;;;;;;5052238;28;20045;-71
2022/01/11 01:25:09;;;;;;;27.70;13.52;;;8.90;99.90;;;;;;5050813;28;20056;-70
2022/01/11 01:27:36;;;;;;;26.70;11.45;;;8.90;99.90;;;;;;5051947;28;20437;-69
2022/01/11 01:30:05;;;;;;;38.58;11.55;;;8.90;99.90;;;;;;5051580;28;20045;-69
2022/01/11 01:32:32;;;;;;;35.67;12.75;;;8.90;99.90;;;;;;5052075;28;20076;-69
2022/01/11 01:35:03;;;;;;;28.42;12.63;;;8.90;99.90;;;;;;5049447;28;20048;-68
2022/01/11 01:37:30;;;;;;;26.42;12.18;;;8.90;99.90;;;;;;5047202;28;20075;-70
2022/01/11 01:39:57;;;;;;;22.80;11.60;;;8.90;99.90;;;;;;5051882;28;20585;-69
2022/01/11 01:42:27;;;;;;;32.25;12.57;;;8.90;99.90;;;;;;5052413;28;20179;-70
2022/01/11 01:44:54;;;;;;;23.73;11.85;;;8.90;99.90;;;;;;5051398;28;20098;-70
2022/01/11 01:47:21;;;;;;;25.92;12.20;;;8.90;99.90;;;;;;5051987;28;20048;-68
2022/01/11 01:49:47;;;;;;;26.38;13.60;;;8.90;99.90;;;;;;5048877;28;20099;-69
2022/01/11 01:52:15;;;;;;;40.63;13.75;;;8.90;99.90;;;;;;5051250;28;20071;-70
2022/01/11 01:54:42;;;;;;;25.73;12.10;;;8.90;99.90;;;;;;5048686;28;20569;-70
2022/01/11 01:57:08;;;;;;;30.83;13.98;;;8.90;99.90;;;;;;5048184;28;20129;-69
2022/01/11 01:59:35;;;;;;;32.47;14.70;;;8.90;99.90;;;;;;5049690;28;20056;-69
2022/01/11 02:02:03;;;;;;;28.58;12.13;;;8.90;99.90;;;;;;5052023;28;20390;-69
2022/01/11 02:04:30;;;;;;;27.88;12.73;;;8.90;99.90;;;;;;5050303;28;20131;-68
2022/01/11 02:06:57;;;;;;;38.40;11.70;;;9.00;99.90;;;;;;5046222;28;20065;-68
2022/01/11 02:09:23;;;;;;;33.30;12.23;;;8.90;99.90;;;;;;5048301;28;20757;-69
2022/01/11 02:11:50;;;;;;;31.67;12.98;;;8.90;99.90;;;;;;5048220;28;20103;-69
2022/01/11 02:14:17;;;;;;;29.25;12.60;;;8.90;99.90;;;;;;5048466;28;20138;-69
2022/01/11 02:16:44;;;;;;;28.10;11.65;;;8.90;99.90;;;;;;5048476;28;20183;-70
2022/01/11 02:19:11;;;;;;;42.22;13.32;;;8.90;99.90;;;;;;5046585;28;20468;-69
2022/01/11 02:21:38;;;;;;;32.78;12.57;;;8.90;99.90;;;;;;5046909;28;20107;-70
2022/01/11 02:24:05;;;;;;;27.15;11.65;;;8.90;99.90;;;;;;5046544;28;20052;-69
2022/01/11 02:26:32;;;;;;;37.47;12.18;;;9.00;99.90;;;;;;5046891;28;20138;-69
2022/01/11 02:28:58;;;;;;;26.05;12.82;;;9.00;99.90;;;;;;5046532;28;20061;-70
2022/01/11 02:31:25;;;;;;;34.78;11.52;;;9.00;99.90;;;;;;5046874;28;20102;-70
2022/01/11 02:33:57;;;;;;;28.38;12.43;;;9.00;99.90;;;;;;5046414;28;20052;-70
2022/01/11 02:36:30;;;;;;;26.80;10.60;;;8.90;99.90;;;;;;5046365;28;20045;-71
2022/01/11 02:38:57;;;;;;;26.27;13.15;;;8.90;99.90;;;;;;5046804;28;20156;-69
2022/01/11 02:41:28;;;;;;;25.65;10.88;;;9.00;99.90;;;;;;5045937;28;20041;-69
2022/01/11 02:43:55;;;;;;;37.55;12.50;;;9.00;99.90;;;;;;5047239;28;20052;-69
2022/01/11 02:46:22;;;;;;;66.60;17.08;;;9.00;99.90;;;;;;4697134;28;10000546;-68
2022/01/11 02:48:50;;;;;;;27.13;10.45;;;9.00;99.90;;;;;;5047439;28;20110;-68
2022/01/11 02:51:17;;;;;;;34.08;12.13;;;9.00;99.90;;;;;;5046554;28;20080;-69
2022/01/11 02:53:46;;;;;;;32.33;12.15;;;9.00;99.90;;;;;;5046524;28;20563;-70
2022/01/11 02:56:13;;;;;;;26.77;11.45;;;9.00;99.90;;;;;;5045644;28;20061;-68
2022/01/11 02:58:39;;;;;;;32.00;12.30;;;9.00;99.90;;;;;;5045843;28;20045;-68
2022/01/11 03:01:07;;;;;;;23.17;10.07;;;9.00;99.90;;;;;;5046601;28;20146;-69
2022/01/11 03:03:34;;;;;;;30.40;12.25;;;9.00;99.90;;;;;;5046106;28;20048;-69
2022/01/11 03:06:02;;;;;;;33.20;11.27;;;9.00;99.90;;;;;;5045720;28;20041;-69
2022/01/11 03:08:39;;;;;;;29.50;11.38;;;9.00;99.90;;;;;;5045488;28;20119;-69
2022/01/11 03:11:06;;;;;;;22.70;10.13;;;9.00;99.90;;;;;;5025792;28;20092;-69
2022/01/11 03:13:35;;;;;;;24.02;11.55;;;9.00;99.90;;;;;;5042541;28;20084;-70
2022/01/11 03:16:02;;;;;;;30.75;11.23;;;9.00;99.90;;;;;;5047795;28;20044;-70
2022/01/11 03:18:30;;;;;;;14.98;9.73;;;9.00;99.90;;;;;;5044259;28;20076;-70
2022/01/11 03:20:57;;;;;;;27.27;11.30;;;9.00;99.90;;;;;;5045395;28;20053;-69
2022/01/11 03:23:23;;;;;;;25.98;10.65;;;9.00;99.90;;;;;;5045130;28;20049;-70
2022/01/11 03:25:51;;;;;;;24.80;9.25;;;9.00;99.90;;;;;;5045983;28;20110;-69
2022/01/11 03:28:19;;;;;;;29.45;10.70;;;9.00;99.90;;;;;;5044522;28;20497;-69
2022/01/11 03:30:46;;;;;;;21.33;9.68;;;9.00;99.90;;;;;;5045510;28;20484;-69
2022/01/11 03:33:13;;;;;;;30.58;9.63;;;9.00;99.90;;;;;;5044247;28;20096;-68
2022/01/11 03:35:40;;;;;;;22.35;9.63;;;9.00;99.90;;;;;;5051581;28;20053;-69
2022/01/11 03:38:08;;;;;;;23.67;9.35;;;9.00;99.90;;;;;;5052274;28;20088;-69
2022/01/11 03:40:35;;;;;;;25.73;10.23;;;9.00;99.90;;;;;;5050962;28;20485;-69
2022/01/11 03:43:02;;;;;;;28.60;11.07;;;9.00;99.90;;;;;;5046908;28;20091;-69
2022/01/11 03:45:29;;;;;;;24.90;8.63;;;9.00;99.90;;;;;;5046135;28;20118;-69
2022/01/11 03:47:57;;;;;;;24.35;8.55;;;9.10;99.90;;;;;;5045923;28;20098;-69
2022/01/11 03:50:25;;;;;;;25.70;10.10;;;9.10;99.90;;;;;;5044599;28;20106;-70
2022/01/11 03:52:58;;;;;;;28.98;8.48;;;9.00;99.90;;;;;;5046589;28;20094;-69
2022/01/11 03:56:12;;;;;;;26.38;8.77;;;9.00;99.90;;;;;;5050358;28;20410;-69
2022/01/11 03:58:24;;;;;;;22.92;10.65;;;9.00;99.90;;;;;;5050492;28;20064;-69
2022/01/11 04:00:52;;;;;;;23.10;9.20;;;9.00;99.90;;;;;;5042535;28;20396;-69
2022/01/11 04:03:19;;;;;;;18.40;8.10;;;9.10;99.90;;;;;;5038275;28;20084;-68
2022/01/11 04:05:47;;;;;;;24.20;7.90;;;9.10;99.90;;;;;;5045841;28;20041;-68
2022/01/11 04:08:19;;;;;;;21.33;8.43;;;9.10;99.90;;;;;;5045642;28;20667;-69
2022/01/11 04:10:46;;;;;;;24.25;7.45;;;9.10;99.90;;;;;;5045632;28;20127;-68
2022/01/11 04:13:12;;;;;;;18.77;7.75;;;9.10;99.90;;;;;;5045923;28;20048;-69
2022/01/11 04:15:39;;;;;;;22.83;8.48;;;9.10;99.90;;;;;;5045645;28;20118;-68
2022/01/11 04:18:06;;;;;;;21.35;6.82;;;9.10;99.90;;;;;;5044603;28;20663;-69
2022/01/11 04:20:33;;;;;;;17.98;6.95;;;9.10;99.90;;;;;;5049033;28;20497;-69
2022/01/11 04:23:00;;;;;;;21.90;6.82;;;9.10;99.90;;;;;;5048798;28;20444;-69
2022/01/11 04:25:26;;;;;;;17.77;7.15;;;9.10;99.90;;;;;;5051713;28;20057;-69
2022/01/11 04:27:54;;;;;;;22.67;6.72;;;9.10;99.90;;;;;;5050387;28;20547;-69
2022/01/11 04:30:20;;;;;;;16.38;8.25;;;9.10;99.90;;;;;;5050330;28;20135;-69
2022/01/11 04:32:48;;;;;;;22.98;6.07;;;9.10;99.90;;;;;;5051882;28;20106;-67
2022/01/11 04:35:16;;;;;;;18.40;5.72;;;9.10;99.90;;;;;;5051287;28;20047;-68
2022/01/11 04:37:46;;;;;;;17.58;6.03;;;9.10;99.90;;;;;;5050578;28;20045;-69
2022/01/11 04:40:13;;;;;;;12.63;5.95;;;9.10;99.90;;;;;;5051573;28;20049;-69
2022/01/11 04:42:40;;;;;;;18.38;6.15;;;9.10;99.90;;;;;;5051843;28;20045;-69
2022/01/11 04:45:10;;;;;;;17.20;6.88;;;9.10;99.90;;;;;;5053885;28;20102;-69
2022/01/11 04:47:37;;;;;;;15.07;6.10;;;9.10;99.90;;;;;;5053098;28;20045;-69
2022/01/11 04:50:04;;;;;;;17.27;7.00;;;9.20;99.90;;;;;;5051019;28;20073;-68
2022/01/11 04:52:31;;;;;;;21.48;6.18;;;9.10;99.90;;;;;;5049417;28;20091;-69
2022/01/11 04:54:58;;;;;;;17.40;6.32;;;9.10;99.90;;;;;;5051635;28;20115;-69
2022/01/11 04:57:42;;;;;;;17.95;6.38;;;9.10;99.90;;;;;;5050357;28;20114;-69
2022/01/11 05:00:12;;;;;;;15.45;6.18;;;9.10;99.90;;;;;;5050343;28;20052;-68
2022/01/11 05:02:39;;;;;;;10.65;5.47;;;9.10;99.90;;;;;;5050506;28;20068;-68
2022/01/11 05:05:06;;;;;;;14.50;5.47;;;9.10;99.90;;;;;;5051277;28;20523;-69
2022/01/11 05:07:33;;;;;;;14.48;5.43;;;9.10;99.90;;;;;;5049327;28;20571;-69
2022/01/11 05:10:00;;;;;;;21.08;5.10;;;9.10;99.90;;;;;;5049928;28;20106;-69
2022/01/11 05:12:27;;;;;;;16.55;5.15;;;9.10;99.90;;;;;;5049685;28;20045;-69
2022/01/11 05:14:53;;;;;;;14.80;5.07;;;9.10;99.90;;;;;;5050693;28;20088;-69
2022/01/11 05:17:20;;;;;;;16.02;5.68;;;9.10;99.90;;;;;;5050659;28;20091;-69
2022/01/11 05:19:47;;;;;;;16.25;6.78;;;9.10;99.90;;;;;;5049512;28;20183;-69
2022/01/11 05:22:14;;;;;;;14.43;5.78;;;9.10;99.90;;;;;;5051581;28;20045;-69
2022/01/11 05:24:40;;;;;;;15.85;6.65;;;9.10;99.90;;;;;;5051384;28;20084;-69
2022/01/11 05:27:07;;;;;;;17.73;7.05;;;9.10;99.90;;;;;;5053892;28;20053;-69
2022/01/11 05:29:34;;;;;;;10.45;5.38;;;9.10;99.90;;;;;;5053756;28;20048;-69
2022/01/11 05:32:03;;;;;;;13.10;6.32;;;9.10;99.90;;;;;;5050504;28;20095;-69
2022/01/11 05:34:29;;;;;;;15.25;5.78;;;9.10;99.90;;;;;;5032844;28;20079;-69
2022/01/11 05:36:56;;;;;;;10.80;5.45;;;9.10;99.90;;;;;;5050409;28;20241;-69
2022/01/11 05:39:23;;;;;;;16.58;5.43;;;9.10;99.90;;;;;;5048507;28;20067;-69
2022/01/11 05:41:50;;;;;;;16.77;6.78;;;9.10;99.90;;;;;;5038971;28;20045;-69
2022/01/11 05:44:20;;;;;;;15.93;5.20;;;9.00;99.90;;;;;;5045331;28;20471;-69
2022/01/11 05:46:47;;;;;;;15.70;6.20;;;9.10;99.90;;;;;;5050419;28;20080;-69
2022/01/11 05:49:14;;;;;;;12.85;6.57;;;9.20;99.90;;;;;;5048545;28;20451;-69
2022/01/11 05:51:40;;;;;;;13.00;5.75;;;9.10;99.90;;;;;;5032947;28;20045;-69
2022/01/11 05:54:07;;;;;;;18.65;6.28;;;9.20;99.90;;;;;;5050249;28;20075;-69
2022/01/11 05:56:34;;;;;;;14.27;5.53;;;9.20;99.90;;;;;;5049751;28;20053;-69
2022/01/11 05:59:01;;;;;;;12.88;6.57;;;9.20;99.90;;;;;;5049565;28;20088;-69
2022/01/11 06:01:27;;;;;;;14.10;6.00;;;9.10;99.90;;;;;;5050173;28;20041;-69
2022/01/11 06:03:55;;;;;;;11.60;6.00;;;9.20;99.90;;;;;;5049555;28;20052;-70
2022/01/11 06:06:22;;;;;;;15.55;6.07;;;9.20;99.90;;;;;;5049871;28;20130;-69
2022/01/11 06:08:49;;;;;;;16.63;6.20;;;9.20;99.90;;;;;;5049457;28;20049;-69
2022/01/11 06:11:16;;;;;;;15.50;5.53;;;9.10;99.90;;;;;;5050012;28;20036;-70
2022/01/11 06:13:42;;;;;;;13.93;5.57;;;9.20;99.90;;;;;;5049761;28;20056;-70
2022/01/11 06:16:09;;;;;;;14.25;6.13;;;9.20;99.90;;;;;;5050436;28;20415;-70
2022/01/11 06:18:36;;;;;;;14.98;5.70;;;9.20;99.90;;;;;;5047989;28;20048;-69
2022/01/11 06:21:03;;;;;;;14.07;5.32;;;9.20;99.90;;;;;;5039512;28;20048;-69
2022/01/11 06:23:30;;;;;;;14.65;4.93;;;9.20;99.90;;;;;;4696597;28;10000371;-69
2022/01/11 06:25:57;;;;;;;11.45;5.15;;;9.20;99.90;;;;;;5048425;28;20103;-69
2022/01/11 06:28:23;;;;;;;14.10;6.57;;;9.20;99.90;;;;;;5049113;28;20558;-69
2022/01/11 06:30:50;;;;;;;12.40;5.20;;;9.20;99.90;;;;;;5045992;28;20558;-70
2022/01/11 06:33:17;;;;;;;10.10;4.85;;;9.20;99.90;;;;;;5049456;28;20437;-70
2022/01/11 06:35:44;;;;;;;11.10;5.75;;;9.20;99.90;;;;;;5048470;28;20756;-70
2022/01/11 06:38:10;;;;;;;10.82;5.63;;;9.30;99.90;;;;;;5048116;28;20105;-69
2022/01/11 06:40:37;;;;;;;11.70;4.78;;;9.30;99.90;;;;;;5050004;28;20075;-69
2022/01/11 06:43:04;;;;;;;17.90;6.07;;;9.20;99.90;;;;;;5050687;28;20041;-70
2022/01/11 06:45:31;;;;;;;14.60;5.57;;;9.30;99.90;;;;;;5050956;28;20045;-69
2022/01/11 06:48:00;;;;;;;12.43;5.70;;;9.30;99.90;;;;;;5052521;28;20251;-70
2022/01/11 06:50:29;;;;;;;10.20;4.90;;;9.20;99.90;;;;;;5043153;28;20095;-69
2022/01/11 06:52:56;;;;;;;16.30;4.70;;;9.20;99.90;;;;;;5049660;28;20053;-70
2022/01/11 06:55:23;;;;;;;15.80;5.78;;;9.20;99.90;;;;;;5049486;28;20041;-69
2022/01/11 06:57:50;;;;;;;6.68;4.05;;;9.30;99.90;;;;;;5049192;28;20056;-67
2022/01/11 07:00:17;;;;;;;11.25;5.07;;;9.30;99.90;;;;;;5049094;28;20080;-68
2022/01/11 07:02:46;;;;;;;11.15;4.45;;;9.30;99.90;;;;;;5048581;28;20071;-68
2022/01/11 07:05:13;;;;;;;12.50;4.45;;;9.30;99.90;;;;;;5049008;28;20454;-68
2022/01/11 07:07:40;;;;;;;11.25;5.22;;;9.30;99.90;;;;;;5048926;28;20049;-69
2022/01/11 07:10:07;;;;;;;7.32;4.45;;;9.30;99.90;;;;;;5048812;28;20099;-69
2022/01/11 07:12:34;;;;;;;6.20;3.85;;;9.30;99.90;;;;;;5048666;28;20090;-68
2022/01/11 07:15:02;;;;;;;6.97;4.40;;;9.40;99.90;;;;;;5049015;28;20076;-68
2022/01/11 07:17:29;;;;;;;6.57;4.13;;;9.40;99.90;;;;;;5048607;28;20049;-69
2022/01/11 07:19:56;;;;;;;8.27;4.15;;;9.40;99.90;;;;;;5048296;28;20059;-69
2022/01/11 07:22:22;;;;;;;7.75;4.22;;;9.40;99.90;;;;;;5048032;28;20049;-69
2022/01/11 07:24:49;;;;;;;4.47;2.85;;;9.40;99.90;;;;;;5048316;28;20088;-68
2022/01/11 07:27:16;;;;;;;9.07;3.80;;;9.40;99.90;;;;;;5048781;28;20044;-69
2022/01/11 07:29:43;;;;;;;7.93;3.50;;;9.50;99.90;;;;;;5047704;28;20056;-69
2022/01/11 07:32:10;;;;;;;7.65;4.45;;;9.50;99.90;;;;;;5048445;28;20071;-67
2022/01/11 07:34:37;;;;;;;6.35;3.70;;;9.50;99.90;;;;;;5051010;28;20052;-67
2022/01/11 07:37:03;;;;;;;6.78;3.00;;;9.50;99.90;;;;;;5053128;28;20037;-68
2022/01/11 07:39:30;;;;;;;6.95;3.00;;;9.50;99.90;;;;;;5053824;28;20045;-70
2022/01/11 07:41:57;;;;;;;11.10;3.72;;;9.40;99.90;;;;;;5051769;28;20083;-69
2022/01/11 07:44:25;;;;;;;3.80;2.30;;;9.50;99.90;;;;;;5052697;28;20059;-69
2022/01/11 07:46:52;;;;;;;12.23;2.72;;;9.50;99.90;;;;;;5049091;28;20095;-69
2022/01/11 07:49:20;;;;;;;4.63;2.45;;;9.50;99.90;;;;;;5048267;28;20040;-69
2022/01/11 07:51:47;;;;;;;5.18;3.10;;;9.50;99.90;;;;;;5050324;28;20044;-69
2022/01/11 07:54:14;;;;;;;3.60;2.17;;;9.50;99.90;;;;;;5049990;28;20045;-69
2022/01/11 07:56:40;;;;;;;4.05;1.95;;;9.50;99.90;;;;;;5050706;28;20514;-69
2022/01/11 07:59:09;;;;;;;2.85;1.60;;;9.50;99.90;;;;;;5050966;28;20045;-69
2022/01/11 08:01:36;;;;;;;3.90;1.67;;;9.60;99.90;;;;;;5051978;28;20049;-68
2022/01/11 08:04:04;;;;;;;3.05;1.73;;;9.50;99.90;;;;;;5051649;28;20077;-69
2022/01/11 08:06:33;;;;;;;2.55;1.58;;;9.50;99.90;;;;;;5047708;28;20059;-69
2022/01/11 08:09:02;;;;;;;5.07;1.77;;;9.50;99.90;;;;;;5048020;28;20045;-71
2022/01/11 08:11:29;;;;;;;2.42;1.63;;;9.50;99.90;;;;;;5047097;28;20523;-70
2022/01/11 08:13:56;;;;;;;4.57;2.85;;;9.50;99.90;;;;;;5044871;28;20107;-71
2022/01/11 08:16:23;;;;;;;4.35;2.15;;;9.40;99.90;;;;;;5047536;28;20044;-70
2022/01/11 08:18:50;;;;;;;3.28;2.00;;;9.50;99.90;;;;;;5047517;28;20156;-69
2022/01/11 08:21:16;;;;;;;7.40;2.70;;;9.40;99.90;;;;;;5048858;28;20080;-69
2022/01/11 08:23:43;;;;;;;4.22;2.17;;;9.40;99.90;;;;;;5050067;28;20053;-69
2022/01/11 08:26:10;;;;;;;4.38;1.80;;;9.40;99.90;;;;;;5051815;28;20049;-71
2022/01/11 08:28:39;;;;;;;3.38;2.47;;;9.40;99.90;;;;;;5051532;28;20497;-73
2022/01/11 08:31:05;;;;;;;4.75;2.63;;;9.40;99.90;;;;;;5048863;28;20123;-68
2022/01/11 08:33:32;;;;;;;3.30;2.65;;;9.30;99.90;;;;;;5047440;28;20049;-68
2022/01/11 08:35:59;;;;;;;3.17;2.42;;;9.30;99.90;;;;;;5047920;28;20053;-68
2022/01/11 08:38:26;;;;;;;4.38;2.88;;;9.30;99.90;;;;;;5047688;28;20077;-70
2022/01/11 08:40:53;;;;;;;4.55;2.40;;;9.30;99.90;;;;;;5046595;28;20106;-70
2022/01/11 08:43:20;;;;;;;3.83;2.25;;;9.30;99.90;;;;;;5047726;28;20492;-70
2022/01/11 08:45:47;;;;;;;5.07;2.70;;;9.30;99.90;;;;;;5036968;28;20135;-69
2022/01/11 08:48:14;;;;;;;6.13;2.40;;;9.30;99.90;;;;;;5047317;28;20065;-69
2022/01/11 08:50:41;;;;;;;6.13;2.92;;;9.30;99.90;;;;;;5045835;28;20600;-69
2022/01/11 08:53:07;;;;;;;3.25;2.42;;;9.30;99.90;;;;;;5047545;28;20045;-69
2022/01/11 08:55:35;;;;;;;5.72;2.63;;;9.30;99.90;;;;;;5035457;28;20141;-67
2022/01/11 08:58:02;;;;;;;4.00;3.08;;;9.30;99.90;;;;;;5066999;28;20044;-69
2022/01/11 09:00:29;;;;;;;4.93;3.03;;;9.20;99.90;;;;;;5048304;28;20057;-69
2022/01/11 09:02:56;;;;;;;6.35;3.67;;;9.20;99.90;;;;;;5047423;28;20049;-69
2022/01/11 09:05:23;;;;;;;5.55;3.45;;;9.30;99.90;;;;;;5048100;28;20056;-69
2022/01/11 09:07:50;;;;;;;4.82;3.17;;;9.30;99.90;;;;;;5044365;28;20049;-68
2022/01/11 09:10:17;;;;;;;5.40;3.33;;;9.30;99.90;;;;;;5049621;28;20578;-69
2022/01/11 09:12:45;;;;;;;5.63;3.35;;;9.30;99.90;;;;;;5049307;28;20807;-69
2022/01/11 09:15:12;;;;;;;5.57;2.95;;;9.30;99.90;;;;;;5048065;28;20492;-67
2022/01/11 09:17:40;;;;;;;4.20;2.92;;;9.30;99.90;;;;;;5049322;28;20072;-68
2022/01/11 09:20:07;;;;;;;6.80;3.53;;;9.30;99.90;;;;;;5049084;28;20535;-68
2022/01/11 09:22:34;;;;;;;6.07;4.15;;;9.40;99.90;;;;;;5048640;28;20555;-68
2022/01/11 09:25:01;;;;;;;4.95;3.17;;;9.40;99.90;;;;;;5050913;28;20060;-68
2022/01/11 09:27:28;;;;;;;4.60;2.72;;;9.40;99.90;;;;;;5051002;28;20049;-68
2022/01/11 09:29:59;;;;;;;5.07;2.67;;;9.50;99.90;;;;;;5050425;28;20044;-68
2022/01/11 09:32:26;;;;;;;4.35;2.85;;;9.50;99.90;;;;;;5050092;28;20435;-69
2022/01/11 09:34:53;;;;;;;3.88;2.95;;;9.50;99.90;;;;;;5049800;28;20048;-69
2022/01/11 09:37:20;;;;;;;4.93;3.20;;;9.50;99.90;;;;;;5049866;28;20041;-69
2022/01/11 09:39:48;;;;;;;7.25;3.20;;;9.60;99.90;;;;;;5049757;28;20504;-68
2022/01/11 09:42:15;;;;;;;6.75;2.90;;;9.60;99.90;;;;;;5045809;28;20661;-69
2022/01/11 09:44:41;;;;;;;5.78;3.75;;;9.60;99.90;;;;;;5033156;28;20072;-68
2022/01/11 09:47:11;;;;;;;5.28;2.97;;;9.60;99.90;;;;;;5050640;28;20137;-69
2022/01/11 09:49:39;;;;;;;8.93;3.88;;;9.70;99.90;;;;;;5050733;28;20052;-66
2022/01/11 09:52:08;;;;;;;8.82;4.05;;;9.70;99.90;;;;;;5050686;28;20099;-68
2022/01/11 09:54:36;;;;;;;5.93;3.97;;;9.80;99.90;;;;;;5049822;28;20743;-68
2022/01/11 09:57:03;;;;;;;6.07;3.38;;;9.80;99.90;;;;;;5052232;28;20107;-68
2022/01/11 09:59:30;;;;;;;7.50;3.88;;;9.80;99.90;;;;;;5051168;28;20049;-69
2022/01/11 10:01:58;;;;;;;5.82;4.35;;;9.80;99.90;;;;;;5050964;28;20048;-68
2022/01/11 10:04:32;;;;;;;6.38;4.10;;;9.80;99.90;;;;;;5050469;28;20087;-68
2022/01/11 10:07:00;;;;;;;6.80;3.88;;;9.80;99.90;;;;;;5048895;28;20049;-68
2022/01/11 10:09:29;;;;;;;4.68;3.38;;;9.90;99.90;;;;;;5050277;28;20049;-68
2022/01/11 10:12:00;;;;;;;5.13;3.33;;;9.90;99.90;;;;;;5050605;28;20714;-68
2022/01/11 10:14:31;;;;;;;5.90;4.10;;;9.90;99.90;;;;;;5032746;28;20492;-68
2022/01/11 10:17:11;;;;;;;5.35;3.30;;;10.00;99.90;;;;;;5049546;28;20554;-68
2022/01/11 10:19:45;;;;;;;3.97;2.83;;;10.00;99.90;;;;;;5050024;28;20452;-69
2022/01/11 10:22:22;;;;;;;12.85;4.28;;;10.00;99.90;;;;;;5049981;28;20077;-69
2022/01/11 10:24:50;;;;;;;3.67;2.20;;;10.10;99.90;;;;;;5049706;28;20166;-68
2022/01/11 10:27:19;;;;;;;25.20;4.00;;;10.10;99.90;;;;;;5049981;28;20051;-69
2022/01/11 10:29:51;;;;;;;3.30;2.50;;;10.10;99.90;;;;;;5049995;28;20049;-69
2022/01/11 10:32:20;;;;;;;5.88;2.55;;;10.10;99.90;;;;;;5038036;28;20075;-69
2022/01/11 10:34:50;;;;;;;3.60;2.45;;;10.10;99.90;;;;;;5052152;28;20057;-68
2022/01/11 10:37:33;;;;;;;2.88;1.92;;;10.10;99.90;;;;;;5052178;28;20091;-68
2022/01/11 10:40:15;;;;;;;6.07;2.97;;;10.20;99.90;;;;;;5051152;28;20569;-68
2022/01/11 10:42:48;;;;;;;4.47;2.95;;;10.20;99.90;;;;;;5049550;28;20327;-68
2022/01/11 10:45:25;;;;;;;3.75;2.17;;;10.20;99.90;;;;;;5049908;28;20070;-67
2022/01/11 10:47:54;;;;;;;4.28;2.55;;;10.20;99.90;;;;;;5048121;28;20486;-69
2022/01/11 10:50:34;;;;;;;6.28;3.33;;;10.20;99.90;;;;;;5049680;28;20532;-69
2022/01/11 10:53:21;;;;;;;3.88;2.70;;;10.20;99.90;;;;;;5049171;28;20048;-69
2022/01/11 10:55:56;;;;;;;4.57;2.72;;;10.20;99.90;;;;;;5049464;28;20049;-70
2022/01/11 10:58:40;;;;;;;4.72;3.22;;;10.20;99.90;;;;;;5050899;28;20056;-68
2022/01/11 11:01:07;;;;;;;5.60;3.25;;;10.30;99.90;;;;;;5048761;28;20088;-69
2022/01/11 11:03:35;;;;;;;4.53;2.75;;;10.20;99.90;;;;;;5011379;28;20100;-70
2022/01/11 11:06:07;;;;;;;5.85;3.95;;;10.30;99.90;;;;;;5043426;28;20052;-69
2022/01/11 11:08:38;;;;;;;6.35;3.95;;;10.20;99.90;;;;;;5049225;28;20041;-69
2022/01/11 11:11:09;;;;;;;7.03;3.75;;;10.30;99.90;;;;;;5048231;28;20056;-69
2022/01/11 11:13:36;;;;;;;5.88;3.55;;;10.30;99.90;;;;;;5049094;28;20102;-69
2022/01/11 11:16:20;;;;;;;6.68;3.65;;;10.40;99.90;;;;;;5049551;28;20080;-68
2022/01/11 11:18:58;;;;;;;5.78;2.83;;;10.40;99.90;;;;;;5048953;28;20060;-69
2022/01/11 11:21:32;;;;;;;7.45;3.63;;;10.50;99.90;;;;;;5048931;28;20219;-68
2022/01/11 11:24:10;;;;;;;5.72;2.90;;;10.60;99.90;;;;;;5050301;28;20533;-68
2022/01/11 11:26:46;;;;;;;6.80;3.90;;;10.60;99.90;;;;;;5050441;28;20049;-68
2022/01/11 11:29:13;;;;;;;6.95;3.45;;;10.60;99.90;;;;;;5050697;28;20087;-69
2022/01/11 11:32:00;;;;;;;7.50;4.82;;;10.60;99.90;;;;;;5051428;28;20105;-68
2022/01/11 11:34:28;;;;;;;5.50;3.33;;;10.80;99.90;;;;;;5049318;28;20098;-69
2022/01/11 11:36:55;;;;;;;6.75;3.83;;;10.80;99.90;;;;;;5031670;28;20052;-69
2022/01/11 11:39:22;;;;;;;6.53;4.05;;;10.90;99.90;;;;;;5049222;28;20045;-68
2022/01/11 11:41:53;;;;;;;7.78;3.58;;;10.90;99.90;;;;;;5048489;28;20093;-68
2022/01/11 11:44:25;;;;;;;5.88;3.05;;;10.90;99.90;;;;;;5048419;28;20060;-68
2022/01/11 11:46:55;;;;;;;7.25;3.80;;;11.00;99.90;;;;;;5042551;28;20191;-68
2022/01/11 11:49:51;;;;;;;5.40;3.30;;;11.00;99.90;;;;;;5053332;28;20075;-69
2022/01/11 11:52:39;;;;;;;9.77;4.35;;;11.00;99.90;;;;;;5041814;28;20045;-69
2022/01/11 11:55:20;;;;;;;7.15;4.07;;;11.00;99.90;;;;;;5049367;28;20807;-69
2022/01/11 11:57:48;;;;;;;6.30;3.53;;;11.00;99.90;;;;;;5048857;28;20091;-69
2022/01/11 12:00:23;;;;;;;6.40;3.70;;;11.00;99.90;;;;;;5048251;28;20132;-68
2022/01/11 12:02:51;;;;;;;7.82;4.10;;;11.00;99.90;;;;;;5048337;28;20064;-70
2022/01/11 12:05:37;;;;;;;9.65;4.07;;;11.00;99.90;;;;;;5047098;28;20037;-68
2022/01/11 12:08:37;;;;;;;7.50;4.30;;;11.00;99.90;;;;;;5048310;28;20077;-68
2022/01/11 12:11:16;;;;;;;7.35;4.43;;;11.00;99.90;;;;;;5048242;28;20059;-68
2022/01/11 12:13:46;;;;;;;9.63;4.93;;;10.90;99.90;;;;;;5048303;28;20053;-69
2022/01/11 12:16:28;;;;;;;8.27;5.25;;;10.90;99.90;;;;;;5048020;28;20099;-67
2022/01/11 12:19:05;;;;;;;7.70;4.10;;;10.90;99.90;;;;;;5048212;28;20053;-68
2022/01/11 12:22:07;;;;;;;8.98;5.03;;;11.00;99.90;;;;;;5048108;28;20143;-68
2022/01/11 12:24:44;;;;;;;7.60;5.00;;;11.00;99.90;;;;;;5026876;28;20555;-69
2022/01/11 12:27:11;;;;;;;9.40;5.35;;;11.00;99.90;;;;;;5045388;28;20447;-69
2022/01/11 12:29:50;;;;;;;8.75;5.22;;;11.10;99.90;;;;;;5048403;28;20187;-68
2022/01/11 12:32:19;;;;;;;8.90;4.93;;;11.10;99.90;;;;;;5032110;28;20056;-68
2022/01/11 12:34:45;;;;;;;14.45;5.88;;;11.00;99.90;;;;;;5042248;28;20045;-68
2022/01/11 12:37:34;;;;;;;9.57;5.40;;;11.00;99.90;;;;;;5047653;28;20048;-69
2022/01/11 12:40:21;;;;;;;9.10;5.53;;;11.00;99.90;;;;;;5030081;28;20483;-68
2022/01/11 12:43:07;;;;;;;12.25;6.57;;;11.00;99.90;;;;;;5049927;28;20065;-69
2022/01/11 12:45:58;;;;;;;11.85;6.50;;;10.90;99.90;;;;;;5052115;28;20045;-69
2022/01/11 12:48:44;;;;;;;13.02;7.88;;;10.90;99.90;;;;;;5049296;28;20067;-70
2022/01/11 12:51:12;;;;;;;18.42;9.07;;;10.90;99.90;;;;;;5053692;28;20049;-69
2022/01/11 12:53:39;;;;;;;11.93;7.35;;;10.90;99.90;;;;;;5052373;28;20111;-70
2022/01/11 12:56:06;;;;;;;11.23;7.28;;;10.90;99.90;;;;;;5053389;28;20061;-68